Saint Xavier, MT

5:32 AM MDT on October 20, 2014 (GMT -0600)
RAWS LITTLE BIGHORN MT US | Change Station
CLOSE
Current Station
Personal Weather Station
Location: Crow Agency, MT
Elevation: 3196 ft
Nearby Weather Stations

Elev 3196 ft 45.57 °N, 107.44 °W | Updated 33 minutes ago

Clear
Clear
45 °F
Feels Like 40 °F
N
10
Wind Variable Wind from SE
Gusts 12.0 mph

Today
High -- | Low -- °F
--% Chance of Precip.
Yesterday
High -- | Low -- °F
Precip. -- in
7:34 AM 6:17 PM
Waning Crescent, 11% visible
Pressure 29.91 in
Visibility 10.0 miles
Clouds Clear
Windchill 40 °F
Dew Point 34 °F
Humidity 66%
Rainfall 0.00 in
Snow Depth Not available.
UV 0 out of 12
Pollen 2.70 out of 12
Air Quality Not available.
Flu Activity No Activity
METAR KBIL 201053Z 23009KT 10SM CLR 07/00 A2995 RMK AO2 SLP126 T00720000

More Conditions Fewer Conditions

Pressure 29.91 in
Visibility 10.0 miles
Clouds Clear
Windchill 40 °F
Dew Point 34 °F
Humidity 66%
Rainfall 0.00 in
Snow Depth Not available.
UV 0 out of 12
Pollen 2.70 out of 12
Air Quality Not available.
Flu Activity No Activity
METAR KBIL 201053Z 23009KT 10SM CLR 07/00 A2995 RMK AO2 SLP126 T00720000

More Conditions Fewer Conditions

10-Day Weather Forecast

Almanac

Astronomy

Oct. 20, 2014 Rise Set
Actual Time 7:34 AM MDT 6:17 PM MDT
Civil Twilight 7:04 AM MDT 6:47 PM MDT
Nautical Twilight 6:29 AM MDT 7:21 PM MDT
Astronomical Twilight 5:55 AM MDT 7:55 PM MDT
Moon 4:16 AM MDT 4:49 PM MDT
Length of Visible Light 11h 42m
Length of Day
10h 42m
Waning Crescent, 11% of the Moon is Illuminated
Today
Waning Crescent
Oct 23
New
Oct 30
First Quarter
Nov 6
Full
Nov 14
Last Quarter

Today's Extremes

State Highs State Lows

Community

WunderPhotos

Upload Photos

1,763,340 photos uploaded!

Nearby

Snow Depth

Station Depth Elevation
Burnt Mountain 0 in 5880 ft
Fisher Creek 1 in 9100 ft
Placer Basin 0 in 8830 ft
Northeast Entrance 0 in 7350 ft
Monument Peak 0 in 8850 ft

Earthquake Activity

City Distance Mag. Time & Date
No recent earthquake activity has been reported nearby.
Minimum magnitude displayed is 2.5.

Coastal Water Temperatures

Place Temperature
No Stations Reporting

Nearby Weather Stations